Aérodrome :
LOGIN :

S'inscrire | Disclaimer

   EN    FR    IT 

 










Légende :    VFR   VFR Marginal   IFR   IFR Intensif   IFR Très Intensif
Visi : 
Plafond : 
>= 8 km
>= 3000ft
5 à 8 km
1000 à 3000 ft
1500m à 5 km
500 à 1000 ft
800 à 1500m
200 à 500 ft
< 800m
< 200 ft
Symboles :   Orages  Brouillard  Fortes neiges  Fortes précipitations  Vent > 20 kt
SIGMETs :   Divers  Orages  Givrage  Turbulence  Onde Orograph.  Cendres Volcan.






- Altitude de l'aérodrome : 239 ft
- Code IATA : VRN


LIPX - Villafranca Int. Verona

DERNIER METAR :
  • 150520Z 19002KT CAVOK M01/M02 Q1012

METARs EXPIRÉS :
  • 150450Z 35002KT CAVOK 01/M01 Q1012
  • 150420Z VRB02KT CAVOK 01/M01 Q1012
  • 150350Z 30006KT CAVOK 01/M01 Q1012
  • 150320Z 33005KT CAVOK 01/M01 Q1011

TAF TAF LIPX
Valide du 15 à 06h jusqu'au 15 à 15h UTC


150500Z 1506/1515 VRB05KT CAVOK
BECMG 1509/1512 4000 BR BKN012 BKN040



MET'MAP, la Météo Aéronautique d'un coup d'oeil ! - Copyright ORBIFLY Décembre 2007 - Disclaimer

ORBIFLY MET'MAP TEAM :

Programmation & Développement : Alexandra Zaïnal
Sur une idée originale de : Baudouin d'Aumeries
Assistance à la programmation : Marc-Olivier Méhu
Soutien technique & logistique : Manuel Goepfert

Contact : metmap@orbifly.com




SOURCES & CREDITS :

   NOAA